Tiempo atmosférico en la estación meteorológica de Cabo Busto, Asturias (63 m.)



Fecha
DESCASC
Temp. máxima en grados centígrados (hora)
DESCASC
Temp. mínima en grados centígrados (hora)
DESCASC
Temp. media en grados centígrados
DESCASC
Racha de viento máxima en m/sg (hora)
DESCASC
Velocidad máxima media en intervalos de 10 minutos(hora)
DESCASC
Precipitaciones diarias en mm
DESCASC
Precipitaciones de 00:00 a 06:00 en mm
DESCASC
Precipitaciones de 06:00 a 12:00 en mm
DESCASC
Precipitaciones de 12:00 a 18:00 en mm
DESCASC
Precipitaciones de 18:00 a 24:00 en mm
DESCASC
26-11-2020 16.4 (15:10) 10 (08:50) 13.2 7.5 (07:30) 5 (07:30) 0 0 0 0 0
25-11-2020 15.9 (00:00) 11 (23:40) 13.4 8.33 (03:40) 5.28 (03:40) 5.6 1 1 2.8 0.8
24-11-2020 19.4 (15:10) 8.3 (06:50) 13.8 11.67 (17:20) 7.22 (10:40) 0 0 0 0 0
23-11-2020 14.6 (14:40) 7.3 (06:50) 11 8.33 (03:40) 6.67 (03:40) 0 0 0 0 0
22-11-2020 15.8 (17:00) 7.4 (00:00) 11.6 6.11 (04:20) 5 (04:30) 0 0 0 0 0
21-11-2020 14.6 (15:00) 9.3 (00:00) 12 11.67 (12:10) 6.67 (12:10) 0 0 0 0 0
20-11-2020 15.1 (14:30) 10.3 (00:00) 12.7 13.61 (15:30) 8.33 (15:10) 0 0 0 0 0
19-11-2020 -- (--) -- (--) -- 10.56 (15:40) 6.39 (17:20) 1.6 1.6 0 0 0
18-11-2020 -- (--) -- (--) -- 7.78 (20:30) 5.28 (20:40) 0.4 0 0 0 0.4
17-11-2020 -- (--) -- (--) -- 9.44 (04:30) 6.67 (04:30) 0 0 0 0 0
16-11-2020 -- (--) -- (--) -- 7.5 (00:10) 5.83 (22:40) 0 0 0 0 0
15-11-2020 -- (--) -- (--) -- 22.22 (08:30) 15.56 (08:30) 6 0 0.8 5.2 0
14-11-2020 -- (--) -- (--) -- 9.72 (23:20) 7.22 (23:20) 0 0 0 0 0
13-11-2020 -- (--) -- (--) -- 7.22 (09:00) 6.11 (09:00) 0 0 0 0 0
12-11-2020 -- (--) -- (--) -- 6.94 (01:00) 5.28 (01:00) 0 0 0 0 0
11-11-2020 -- (--) -- (--) -- 7.78 (07:40) 6.39 (06:10) 0 0 0 0 0
10-11-2020 -- (--) -- (--) -- 8.33 (22:50) 6.39 (22:50) 0 0 0 0 0
09-11-2020 -- (--) -- (--) -- 12.22 (14:10) 8.89 (14:10) 2.2 0 1.6 0.6 0
08-11-2020 -- (--) -- (--) -- 13.89 (11:00) 10.83 (11:00) 0 0 0 0 0
07-11-2020 -- (--) -- (--) -- 6.94 (08:00) 5 (07:30) 0 0 0 0 0
06-11-2020 -- (--) -- (--) -- 15.83 (20:40) 10.83 (20:50) 0.4 0 0 0 0.4
05-11-2020 -- (--) -- (--) -- 19.72 (02:40) 12.22 (02:40) 0 0 0 0 0
04-11-2020 -- (--) -- (--) -- 19.44 (19:20) 11.94 (23:59) 4.6 2 0.4 1.2 1
03-11-2020 -- (--) -- (--) -- -- (--) -- (--) 2 0.6 1.2 0 0.2
02-11-2020 -- (--) -- (--) -- 22.22 (09:50) 14.72 (10:00) 12.2 0 3.4 8.8 0
01-11-2020 -- (--) -- (--) -- 13.33 (03:00) 5.83 (08:30) 0 0 0 0 0
31-10-2020 -- (--) -- (--) -- -- (--) -- (--) 0 0 0 0 0
30-10-2020 -- (--) -- (--) -- -- (--) -- (--) 0 0 0 0 0

Gráficas

Temp. máximas Temp. mínimas Temp. medias Precipitaciones Rachas de viento máximas Velocidades máximas media en intervalos de 10 minutos

Datos horarios

Fecha y hora oficial Temperatura (ºC) Velocidad del viento (km/h) Dirección del viento Racha (km/h) Dirección de racha Precipitación (mm) Presión (hPa) Tendencia (hPa) Humedad (%)
2020-11-28 23:00:00 10.2 18 Sur 24 Sur 0 999.7 1.7 76
2020-11-28 22:00:00 11.2 18 Sudeste 24 Sudeste 0 999.1 1.5 75
2020-11-28 21:00:00 11.3 17 Sudeste 22 Sudeste 0 998.4 1.3 77
2020-11-28 20:00:00 11.2 14 Sudeste 18 Sur 0 998 1.4 79
2020-11-28 19:00:00 12.4 10 Sudeste 15 Sudeste 0 997.6 1.2 80
2020-11-28 18:00:00 13.4 5 Este 16 Nordeste 0 997.1 0.6 78
2020-11-28 17:00:00 14.6 8 Este 13 Nordeste 0 996.6 -0.2 76
2020-11-28 16:00:00 15.2 5 Nordeste 16 Este 0 996.4 -0.8 73
2020-11-28 15:00:00 15.6 2 Nordeste 12 Noroeste 0 996.5 -1.2 70
2020-11-28 14:00:00 15.6 6 Noroeste 11 Oeste 0 996.8 -0.8 69
2020-11-28 13:00:00 15.7 5 Oeste 10 Este 0 997.2 -0.3 68
2020-11-28 12:00:00 14.8 4 Nordeste 13 Este 0 997.7 0.5 68
2020-11-28 11:00:00 12.9 10 Sudeste 22 Sur 0 997.6 0.3 67
2020-11-28 10:00:00 10.8 17 Sudeste 25 Sudeste 0 997.5 0.4 70
2020-11-28 09:00:00 8.6 19 Sudeste 26 Sur 0 997.2 -0.1 77
2020-11-28 08:00:00 8.7 17 Sudeste 27 Sur 0 997.3 -0.6 76
2020-11-28 07:00:00 8.7 22 Sur 28 Sudeste 0 997.1 -1.1 76
2020-11-28 06:00:00 9.1 22 Sudeste 28 Sur 0 997.3 -1.3 76
2020-11-28 05:00:00 9.5 21 Sudeste 28 Sur 0 997.9 -1 75
2020-11-28 04:00:00 9.7 19 Sur 26 Sur 0 998.2 -1.1 75
2020-11-28 03:00:00 9.7 20 Sur 26 Sudeste 0 998.6 -1.1 76
2020-11-28 02:00:00 10.4 17 Sur 27 Sur 0 998.9 -- 75
2020-11-28 01:00:00 10.1 19 Sur 28 Sur 0 999.3 -- 79
2020-11-28 00:00:00 10.3 19 Sudeste 26 Sudeste 0 999.7 -- 80
2020-11-27 23:00:00 10.3 19 Sur 28 Sur 0 1000.4 -- 81
2020-11-27 22:00:00 10.7 19 Sudeste 26 Sudeste 0 1000.5 -- 82
2020-11-27 21:00:00 11.1 21 Sudeste 26 Sudeste 0 1000.9 -- 84
2020-11-27 20:00:00 11.1 17 Sur 22 Sur 0 1000.9 -- 86
2020-11-27 19:00:00 11.6 8 Sudeste -- -- 0 1001.3 -- 83
2020-11-27 18:00:00 13.3 2 Oeste 9 Este 0 1001.2 -- 80
2020-11-27 17:00:00 14.5 4 Este 9 Noroeste 0 1001.1 -- 77
2020-11-27 16:00:00 15.1 5 Noroeste 9 Este 0 1001.2 -- 77
2020-11-27 15:00:00 14.9 8 Este 12 Este 0 1001.7 -- 77
2020-11-27 14:00:00 14.7 8 Noroeste 11 Noroeste 0 1002.3 -- 78
2020-11-27 13:00:00 14.9 4 Norte 11 Norte 0 1002.6 -- 76
2020-11-27 12:00:00 14.6 4 Oeste 14 Sudeste 0 1003.4 -- 77
2020-11-27 11:00:00 11.6 11 Sudeste 18 Sudeste 0 1003.6 -- 78
2020-11-27 10:00:00 11.6 10 Sudoeste 16 Sur 0 1003.6 -- 84
2020-11-27 09:00:00 9.2 12 Sur 19 Sudoeste 0 1003.3 -- 84
2020-11-27 08:00:00 11.6 14 Sudoeste 20 Sur 0 1003.1 -- 84
2020-11-27 07:00:00 9.8 16 Sur 24 Sur 0 1002.7 -- 84
2020-11-27 06:00:00 9.7 16 Sur 21 Sur 0 1003.1 -- 85
2020-11-27 05:00:00 10 14 Sudeste 21 Sur 0 1003.5 -- 86
2020-11-27 04:00:00 9.6 14 Sur 20 Sur 0 1003.6 -- 87
2020-11-27 03:00:00 9.4 13 Sur 20 Sur 0 1003.6 -- 87
2020-11-27 02:00:00 9.5 11 Sur 21 Sur 0 1003.8 -- 87
2020-11-27 01:00:00 10.2 13 Sur 17 Sur 0 1004.2 -- 87
2020-11-27 00:00:00 10.3 10 Sur 18 Sur 0 1004.1 -- 88
2020-11-26 23:00:00 10.5 13 Sur 16 Sudoeste 0 1004.1 -- 87
2020-11-26 22:00:00 10.8 11 Sur 17 Sur 0 1004.2 -- 87
2020-11-26 21:00:00 11 10 Sur 14 Sur 0 1003.9 -- 86
2020-11-26 20:00:00 13.2 12 Oeste 16 Sudoeste 0 1003.8 -- 86
2020-11-26 19:00:00 13.6 11 Oeste 14 Oeste 0 1003.7 -- 85
2020-11-26 18:00:00 13.8 7 Oeste 15 Oeste 0 1003.2 -- 83
2020-11-26 17:00:00 15.1 8 Oeste 16 Oeste 0 1002.9 -- 80
2020-11-26 16:00:00 15.7 6 Oeste 17 Oeste 0 1002.8 -- 80
2020-11-26 15:00:00 16.2 6 Oeste 18 Oeste 0 1002.7 -- 79
2020-11-26 14:00:00 15.1 10 Noroeste 19 Oeste 0 1002.8 -- 80
2020-11-26 13:00:00 13.9 6 Oeste 14 Oeste 0 1003 -- 82
2020-11-26 12:00:00 12.6 7 Sur 18 Sur 0 1002.8 -- 81
2020-11-26 11:00:00 11.9 12 Sur 19 Sur 0 1002.4 -- 82
2020-11-26 10:00:00 10.8 11 Sudeste -- -- 0 1002.5 -- 84
2020-11-26 09:00:00 10.3 -- -- -- -- 0 1001.8 -- 85
2020-11-26 08:00:00 10.4 11 Sur 27 Sudeste 0 1001.5 -- 86
2020-11-26 07:00:00 10.5 17 Sudeste 21 Sudeste 0 1001.2 -- 87
2020-11-26 06:00:00 10.2 13 Sur 17 Sur 0 1001.3 -- 87
2020-11-26 05:00:00 10.7 12 Sur 16 Oeste 0 1001.4 -- 87
2020-11-26 04:00:00 11.2 9 Sudoeste 17 Sur 0 1001.4 -- 88
2020-11-26 03:00:00 10.8 13 Sur 22 Sudeste 0 1001.3 -- 88
2020-11-26 02:00:00 10.8 12 Sur 14 Sur 0 1001.6 -- 88
2020-11-26 01:00:00 11 9 Sur 11 Sur 0 1002 -- 88
2020-11-26 00:00:00 11.1 10 Sur 13 Sur 0 1002 -- 88
2020-11-25 23:00:00 11.2 9 Sur 14 Sur 0 1002.1 -- 88
2020-11-25 22:00:00 11.6 7 Sudeste 10 Sur 0.2 1002.4 -- 87
2020-11-25 21:00:00 12.6 6 Este 20 Este 0 1002.7 -- 88
2020-11-25 20:00:00 12.3 9 Este 17 Este 0.2 1002.7 -- 87
2020-11-25 19:00:00 12.4 8 Oeste 24 Nordeste 0.4 1003 -- 87
2020-11-25 18:00:00 12.3 6 Sudoeste 17 Nordeste 0.4 1003.1 -- 86
2020-11-25 17:00:00 12.4 5 Norte 17 Nordeste 0.8 1003.4 -- 84
2020-11-25 16:00:00 12.6 4 Este 10 Nordeste 0.8 1003.3 -- 82
2020-11-25 15:00:00 12.6 6 Noroeste 10 Oeste 0.8 1003.6 -- 80
2020-11-25 14:00:00 13.1 5 Oeste 12 Oeste 0 1003.9 -- 77
2020-11-25 13:00:00 13.2 7 Oeste 15 Oeste 0 1004.4 -- 78
2020-11-25 12:00:00 12.7 7 Oeste 13 Oeste 0 1004.9 -- 81
2020-11-25 11:00:00 12.6 4 Este 13 Sur 0 1004.9 -- 84
2020-11-25 10:00:00 11.7 9 Sur 15 Oeste 0.2 1004.9 -- 85
2020-11-25 09:00:00 12.2 11 Oeste 16 Sudoeste 0.2 1004.6 -- 85
2020-11-25 08:00:00 11.7 7 Sur 13 Sur 0 1004.1 -- 83
2020-11-25 07:00:00 12.8 8 Sudoeste 11 Sudoeste 0.6 1004.2 -- 82
2020-11-25 06:00:00 13.2 8 Sudoeste 16 Sudoeste 0.4 1004.1 -- 78
2020-11-25 05:00:00 13.4 13 Oeste 20 Oeste 0.4 1003.7 -- 73
2020-11-25 04:00:00 14 8 Sudoeste 30 Oeste 0.2 1004 -- 67
2020-11-25 03:00:00 12.8 11 Sur 15 Sur 0 1004.2 -- 66
2020-11-25 02:00:00 13.7 10 Sur 14 Sur 0 1004.1 -- 62
2020-11-25 01:00:00 14.9 6 Noroeste 13 Sudeste 0 1004.4 -- 60
2020-11-25 00:00:00 15.9 3 Nordeste 14 Este 0 1004.4 -- 48
2020-11-24 23:00:00 15.2 12 Sudeste 16 Sudeste 0 1004.6 -- 50
2020-11-24 22:00:00 14.9 9 Sudeste 27 Sur 0 1005.2 -- 51
2020-11-24 21:00:00 16.7 12 Sur 21 Sur 0 1005.8 -- 45
2020-11-24 20:00:00 16.6 4 Oeste 22 Sur 0 1006.2 -- 46
2020-11-24 19:00:00 17 15 Sur -- -- 0 1006.5 -- 43
2020-11-24 18:00:00 17.9 8 Sudoeste 42 Sudoeste 0 1006.5 -- 43
2020-11-24 17:00:00 18.6 21 Sur 39 Sudoeste 0 1006.5 -- 43
2020-11-24 16:00:00 18 15 Oeste 26 Oeste 0 1007.5 -- 51
2020-11-24 15:00:00 19.3 17 Sudoeste 29 Oeste 0 1008.2 -- 43
2020-11-24 14:00:00 18.6 15 Sudoeste 24 Sudoeste 0 1009.2 -- 42
2020-11-24 13:00:00 17.8 14 Sudoeste 29 Sur 0 1010.2 -- 44
2020-11-24 12:00:00 17 21 Sudoeste 40 Sudoeste 0 1011.3 -- 47
2020-11-24 11:00:00 14.1 13 Sudoeste 40 Sudoeste 0 1012.2 -- 62
2020-11-24 10:00:00 11 12 Oeste 16 Sudoeste 0 1012.6 -- 72
2020-11-24 09:00:00 8.5 11 Sur 19 Sudoeste 0 1012.7 -- 74
2020-11-24 08:00:00 9.6 13 Sudoeste 22 Sudoeste 0 1012.6 -- 71
2020-11-24 07:00:00 8.6 15 Sur 21 Sur 0 1012.6 -- 76
2020-11-24 06:00:00 8.5 18 Sur 21 Sur 0 1012.5 -- 76
2020-11-24 05:00:00 8.9 16 Sudeste 22 Sudeste 0 1012.5 -- 76
2020-11-24 04:00:00 9.4 19 Sudeste 23 Sudeste 0 1012.9 -- 75
2020-11-24 03:00:00 9 17 Sudeste 21 Sudeste 0 1013.5 -- 78
2020-11-24 02:00:00 8.8 15 Sur 19 Sur 0 1014.2 -- 79
2020-11-24 01:00:00 8.9 17 Sur 20 Sur 0 1014.9 -- 81
2020-11-24 00:00:00 9.2 14 Sur 21 Sur 0 1015.5 -- 81
2020-11-23 23:00:00 9.6 13 Sudeste 19 Sur 0 1016 -- 83
2020-11-23 22:00:00 9.4 14 Sur 18 Sur 0 1016.5 -- 85
2020-11-23 21:00:00 9.7 9 Sur 14 Sur 0 1017.1 -- 84
2020-11-23 20:00:00 11 9 Sudeste 13 Este 0 1017.3 -- 82
2020-11-23 19:00:00 11.1 8 Sudeste 9 Sudeste 0 1017.5 -- 81
2020-11-23 18:00:00 13 3 Oeste 5 Oeste 0 1017.4 -- 76
2020-11-23 17:00:00 13.6 4 Este 8 Este 0 1017.5 -- 72
2020-11-23 16:00:00 13.9 4 Este 9 Norte 0 1017.6 -- 73
2020-11-23 15:00:00 14.3 5 Nordeste 9 Nordeste 0 1018 -- 70
2020-11-23 14:00:00 14.1 3 Nordeste 8 Oeste 0 1018.8 -- 72
2020-11-23 13:00:00 14.1 5 Oeste 10 Oeste 0 1019.8 -- 70
2020-11-23 12:00:00 14.2 5 Oeste 9 Noroeste 0 1020.4 -- 70
2020-11-23 11:00:00 11.7 10 Sur 20 Sur 0 1020.4 -- 73
2020-11-23 10:00:00 9.2 17 Sur 22 Sur 0 1020.3 -- 77
2020-11-23 09:00:00 7.4 17 Sur 22 Sur 0 1020.1 -- 81
2020-11-23 08:00:00 7.4 18 Sur 25 Sur 0 1019.9 -- 81
2020-11-23 07:00:00 7.4 19 Sur 22 Sur 0 1019.8 -- 82
2020-11-23 06:00:00 7.6 18 Sur 22 Sur 0 1019.8 -- 82
2020-11-23 05:00:00 8.1 15 Sudeste 30 Sur 0 1020 -- 80
2020-11-23 04:00:00 8.5 22 Sudeste 30 Sudeste 0 1020.1 -- 80
2020-11-23 03:00:00 8.4 20 Sudeste 26 Sudeste 0 1020.2 -- 82
2020-11-23 02:00:00 8.5 18 Sudeste 22 Sudeste 0 1020.8 -- 83
2020-11-23 01:00:00 8.5 15 Sur 20 Sur 0 1021.1 -- 83
2020-11-23 00:00:00 8.7 15 Sur 19 Sur 0 1021.1 -- 82
2020-11-22 23:00:00 9.2 15 Sur 18 Sur 0 1021.2 -- 81
2020-11-22 22:00:00 9.6 16 Sur 21 Sur 0 1021 -- 80
2020-11-22 21:00:00 10.3 14 Sur 19 Sudeste 0 1020.9 -- 78
2020-11-22 20:00:00 10.3 14 Sur 17 Sur 0 1020.5 -- 79
2020-11-22 19:00:00 11.2 9 Sudeste 10 Sudeste 0 1020.1 -- 77
2020-11-22 18:00:00 13.6 3 Este 6 Oeste 0 1019.7 -- 73
2020-11-22 17:00:00 15.7 3 Oeste 7 Sudoeste 0 1019.4 -- 69
2020-11-22 16:00:00 14.9 3 Este 7 Este 0 1019.1 -- 72
2020-11-22 15:00:00 15 4 Este 8 Nordeste 0 1019.2 -- 71
2020-11-22 14:00:00 15 4 Nordeste 9 Nordeste 0 1019.7 -- 71
2020-11-22 13:00:00 15.2 5 Este 13 Este 0 1019.9 -- 71
2020-11-22 12:00:00 15 3 Este 15 Sur 0 1020.4 -- 68
2020-11-22 11:00:00 12.3 9 Sudeste 17 Sudeste 0 1020.4 -- 72
2020-11-22 10:00:00 9.6 13 Sudeste 19 Sur 0 1020.1 -- 78
2020-11-22 09:00:00 7.6 17 Sur 19 Sur 0 1019.7 -- 82
2020-11-22 08:00:00 7.6 13 Sudeste 19 Sur 0 1019.3 -- 82
2020-11-22 07:00:00 7.6 14 Sudeste 21 Sur 0 1019 -- 81
2020-11-22 06:00:00 7.8 15 Sudeste 22 Sur 0 1018.7 -- 82
2020-11-22 05:00:00 7.5 18 Sur 22 Sur 0 1018.3 -- 83
2020-11-22 04:00:00 7.8 16 Sudeste 19 Sudeste 0 1018.3 -- 82
2020-11-22 03:00:00 7.7 14 Sudeste 18 Sur 0 1018.1 -- 83
2020-11-22 02:00:00 7.9 17 Sudeste 19 Sur 0 1018.3 -- 81
2020-11-22 01:00:00 8.8 13 Sudeste 18 Sur 0 1018.4 -- 80
2020-11-22 00:00:00 10.6 12 Sudoeste 24 Sudoeste 0 1018.1 -- 73
2020-11-21 23:00:00 11.9 20 Sudoeste 31 Oeste 0 1018 -- 76
2020-11-21 22:00:00 11.6 16 Oeste 23 Oeste 0 1018.2 -- 76
2020-11-21 21:00:00 11.1 9 Sudeste 20 Este 0 1018.1 -- 72
2020-11-21 20:00:00 12.3 14 Este 25 Este 0 1018 -- 71
2020-11-21 19:00:00 12.7 18 Este 34 Este 0 1018 -- 69
2020-11-21 18:00:00 13.6 21 Este 37 Este 0 1018.1 -- 68
2020-11-21 17:00:00 14.2 22 Nordeste 40 Nordeste 0 1018.1 -- 65
2020-11-21 16:00:00 14.3 21 Nordeste 36 Nordeste 0 1018.3 -- 63
2020-11-21 15:00:00 14.6 21 Nordeste 36 Nordeste 0 1018.7 -- 57
2020-11-21 14:00:00 14.3 21 Nordeste 34 Nordeste 0 1019 -- 57
2020-11-21 13:00:00 13.7 19 Nordeste 42 Nordeste 0 1019.8 -- 55
2020-11-21 12:00:00 13.4 18 Este 37 Este 0 1020.6 -- 59
2020-11-21 11:00:00 12.7 13 Este 26 Este 0 1020.9 -- 65
2020-11-21 10:00:00 11.9 12 Este 24 Este 0 1021.1 -- 66
2020-11-21 09:00:00 11 12 Este 23 Este 0 1020.7 -- 66
2020-11-21 08:00:00 10.5 12 Este 19 Este 0 1020.5 -- 69
2020-11-21 07:00:00 9.7 12 Sudeste 23 Sudeste 0 1020.7 -- 72
2020-11-21 06:00:00 9.7 13 Sudeste 21 Sudeste 0 1020.7 -- 74
2020-11-21 05:00:00 10.9 11 Este 20 Este 0 1020.9 -- 71
2020-11-21 04:00:00 11.1 9 Este 15 Este 0 1021.3 -- 71
2020-11-21 03:00:00 11.1 10 Este 16 Sudeste 0 1021.7 -- 72
2020-11-21 02:00:00 10.8 10 Sudeste 21 Sudeste 0 1022.1 -- 72
2020-11-21 01:00:00 10.9 14 Sudeste 24 Sudeste 0 1022.6 -- 73
2020-11-21 00:00:00 11.1 11 Sudeste 24 Este 0 1023.2 -- 72
2020-11-20 23:00:00 12.2 13 Este 25 Este 0 1023.6 -- 72
2020-11-20 22:00:00 11.8 9 Este 20 Sudeste 0 1023.8 -- 71
2020-11-20 21:00:00 12.9 13 Este 39 Este 0 1024 -- 70
2020-11-20 20:00:00 13.1 20 Este 42 Este 0 1024.7 -- 69
2020-11-20 19:00:00 13.2 23 Este 44 Este 0 1024.9 -- 68
2020-11-20 18:00:00 13.9 28 Nordeste 46 Nordeste 0 1024.6 -- 69
2020-11-20 17:00:00 14.2 26 Nordeste 44 Este 0 1024 -- 63
2020-11-20 16:00:00 14.4 27 Este 49 Nordeste 0 1024.2 -- 63
2020-11-20 15:00:00 14.8 27 Nordeste 46 Nordeste 0 1025 -- 62
2020-11-20 14:00:00 14.8 22 Nordeste 42 Nordeste 0 1025.5 -- 63
2020-11-20 13:00:00 14.6 18 Nordeste 36 Nordeste 0 1026.9 -- 64
2020-11-20 12:00:00 14.5 17 Nordeste 37 Nordeste 0 1027.5 -- 66
2020-11-20 11:00:00 14.4 13 Este 26 Este 0 1027.6 -- 60
2020-11-20 10:00:00 13.3 14 Sudeste 25 Sudeste 0 1027.7 -- 62
2020-11-20 09:00:00 10.4 14 Sudeste 25 Sudeste 0 1027.6 -- 77
2020-11-20 08:00:00 10.8 8 Sudeste 15 Este 0 1028.1 -- 71
2020-11-20 07:00:00 11.6 7 Este 23 Este 0 1028.5 -- 71
2020-11-20 06:00:00 12.3 12 Este 32 Nordeste 0 1028.4 -- 72
2020-11-20 05:00:00 12.4 10 Este 20 Nordeste 0 1028.4 -- 73
2020-11-20 04:00:00 12.6 14 Este 29 Este 0 1028.9 -- 74
2020-11-20 03:00:00 12.6 17 Este 32 Este 0 1028.8 -- 75
2020-11-20 02:00:00 12.7 17 Este 31 Este 0 1029.3 -- 76
2020-11-20 01:00:00 12.8 21 Nordeste 41 Este 0 1029.9 -- 78
2020-11-20 00:00:00 12.4 11 Este 25 Este 0 1030.5 -- 77
2020-11-19 23:00:00 12.4 11 Este 27 Este 0 1030.6 -- 78
2020-11-19 22:00:00 12.5 19 Este 37 Este 0 1030.2 -- 78
2020-11-19 21:00:00 12.6 22 Este 36 Este 0 1030.1 -- 78
2020-11-19 20:00:00 12.4 18 Este 33 Este 0 1029.7 -- 80
2020-11-19 19:00:00 12.5 20 Este 33 Este 0 1030.2 -- 82
2020-11-19 18:00:00 12.6 16 Nordeste 36 Este 0 1030.1 -- 84
2020-11-19 17:00:00 12.3 19 Este 35 Este 0 1029.9 -- 85
2020-11-19 16:00:00 12.9 15 Nordeste 38 Nordeste 0 1030.2 -- 81
2020-11-19 15:00:00 13.3 18 Nordeste 33 Nordeste 0 1029.6 -- 78
2020-11-19 14:00:00 13.5 13 Nordeste 30 Este 0 1029.9 -- 79
2020-11-19 13:00:00 12.8 19 Este 33 Este 0 1029.3 -- 84
2020-11-19 12:00:00 12.7 14 Nordeste 31 Este 0 1030.4 -- 87
2020-11-19 11:00:00 12.6 17 Este 29 Este 0 1029.9 -- 87
2020-11-19 10:00:00 12.6 13 Nordeste 26 Nordeste 0 1029.5 -- 86
2020-11-19 09:00:00 12.4 12 Nordeste 27 Nordeste 0 1029.3 -- 85
2020-11-19 08:00:00 12.7 8 Noroeste 28 Nordeste 0 1029.1 -- 85
2020-11-19 07:00:00 12.6 10 Norte 30 Nordeste 0 1028.1 -- 88
2020-11-19 06:00:00 12.7 7 Sudoeste 27 Nordeste 0.2 1027.2 -- 90
2020-11-19 05:00:00 13.1 7 Sudoeste 18 Sudoeste 0.2 1026.4 -- 90
2020-11-19 04:00:00 13.4 5 Noroeste 16 Nordeste 0.2 1026 -- 90
2020-11-19 03:00:00 13.4 5 Oeste 21 Noroeste 0.4 1025.4 -- 89
2020-11-19 02:00:00 13.8 10 Sudoeste 27 Nordeste 0.6 1024.8 -- 89
2020-11-19 01:00:00 14.9 13 Noroeste 33 Noroeste 0 1023.9 -- 89
2020-11-19 00:00:00 16.6 6 Oeste 18 Oeste 0 1022.7 -- 86
2020-11-18 23:00:00 16.5 16 Oeste 24 Oeste 0 1022.8 -- 86
2020-11-18 22:00:00 16.9 12 Oeste 27 Oeste 0.4 1022 -- 84
2020-11-18 21:00:00 17.2 18 Oeste 28 Oeste 0 1020.9 -- 81
2020-11-18 20:00:00 17.6 12 Oeste 17 Oeste 0 1019.6 -- 73
2020-11-18 19:00:00 17.9 8 Sur 10 Sur 0 1018.1 -- 69
2020-11-18 18:00:00 19.7 8 Este 19 Este 0 1017 -- 59
2020-11-18 17:00:00 20.1 11 Sudeste 18 Este 0 1016.3 -- 57
2020-11-18 16:00:00 20.9 10 Sudeste 16 Sudeste 0 1015.9 -- 56
2020-11-18 15:00:00 21.8 7 Este 10 Norte 0 1015.7 -- 56
2020-11-18 14:00:00 21.6 7 Nordeste 23 Oeste 0 1015.5 -- 55
2020-11-18 13:00:00 23.3 8 Oeste 18 Oeste 0 1015.6 -- 49
2020-11-18 12:00:00 21.8 3 Sur 14 Sudeste 0 1015.7 -- 59
2020-11-18 11:00:00 19.7 9 Sudeste 15 Sur 0 1015.3 -- 64
2020-11-18 10:00:00 17.5 5 Sudeste 17 Sudeste 0 1015.1 -- 69
2020-11-18 09:00:00 14.6 12 Sur 19 Sur 0 1014.7 -- 75
2020-11-18 08:00:00 13.8 12 Sur 19 Sur 0 1014 -- 75
2020-11-18 07:00:00 13.3 10 Sur 20 Sudeste 0 1013.5 -- 76
2020-11-18 06:00:00 13.3 12 Sudeste 19 Sur 0 1013 -- 74
2020-11-18 05:00:00 13.8 13 Sur 22 Sur 0 1012.5 -- 71
2020-11-18 04:00:00 13.9 15 Sudeste 25 Sur 0 1012.6 -- 69
2020-11-18 03:00:00 15.1 12 Sudoeste 20 Sudoeste 0 1012.8 -- 69
2020-11-18 02:00:00 14.3 14 Sudeste 22 Sur 0 1012.3 -- 69
2020-11-18 01:00:00 13.2 13 Sur 19 Sudeste 0 1013 -- 73
2020-11-18 00:00:00 12.9 12 Sur 18 Sur 0 1013.2 -- 75
2020-11-17 23:00:00 13.6 15 Sur 19 Sur 0 1013.5 -- 74
2020-11-17 22:00:00 13.9 13 Sur 19 Sudeste 0 1013.4 -- 74
2020-11-17 21:00:00 14.7 15 Sur 18 Sur 0 1013.5 -- 73
2020-11-17 20:00:00 14.7 9 Sudeste 16 Sur 0 1013.4 -- 75
2020-11-17 19:00:00 14 8 Sur 10 Sur 0 1013.6 -- 75
2020-11-17 18:00:00 14.8 2 Sur 10 Este 0 1013.5 -- 69
2020-11-17 17:00:00 15.9 4 Este 7 Sudeste 0 1013.6 -- 72
2020-11-17 16:00:00 16.1 3 Nordeste 7 Nordeste 0 1013.8 -- 71
2020-11-17 15:00:00 16.4 4 Nordeste 11 Oeste 0 1014.1 -- 69
2020-11-17 14:00:00 16.9 10 Oeste 17 Oeste 0 1014.5 -- 71
2020-11-17 13:00:00 14.9 11 Oeste 15 Oeste 0 1015 -- 71
2020-11-17 12:00:00 15.6 6 Oeste 15 Sur 0 1015.4 -- 65
2020-11-17 11:00:00 14.1 11 Sur 24 Sur 0 1015.9 -- 64
2020-11-17 10:00:00 11.8 17 Sur 27 Sur 0 1016 -- 66
2020-11-17 09:00:00 9.3 21 Sur 26 Sur 0 1015.8 -- 75
2020-11-17 08:00:00 9 16 Sudeste 21 Sur 0 1015.9 -- 78
2020-11-17 07:00:00 9 17 Sur 20 Sur 0 1015.9 -- 78
2020-11-17 06:00:00 9.9 15 Sur 28 Sur 0 1016 -- 75
2020-11-17 05:00:00 10.1 22 Sur 34 Sudeste 0 1015.6 -- 77
2020-11-17 04:00:00 9.7 22 Sur 28 Sur 0 1016.3 -- 81
2020-11-17 03:00:00 9.8 14 Sur 23 Sur 0 1017 -- 81
2020-11-17 02:00:00 9.9 15 Sudeste 23 Sudeste 0 1017.4 -- 82
2020-11-17 01:00:00 9.8 18 Sur 23 Sur 0 1017.8 -- 82
2020-11-17 00:00:00 9.9 16 Sur 21 Sur 0 1018.4 -- 80
2020-11-16 23:00:00 10.2 17 Sur 26 Sudeste 0 1018.5 -- 79
2020-11-16 22:00:00 10.5 20 Sudeste 26 Sudeste 0 1018.4 -- 78
2020-11-16 21:00:00 11.2 17 Sudeste 22 Sudeste 0 1018.3 -- 74
2020-11-16 20:00:00 11.4 13 Sudeste 18 Sudeste 0 1018.4 -- 73
2020-11-16 19:00:00 13.3 7 Este 15 Nordeste 0 1018.1 -- 67
2020-11-16 18:00:00 14.4 6 Este 13 Nordeste 0 1018.3 -- 66
2020-11-16 17:00:00 15.4 5 Este 11 Nordeste 0 1018.2 -- 60
2020-11-16 16:00:00 16.4 3 Este 11 Oeste 0 1018 -- 58
2020-11-16 15:00:00 15.8 5 Noroeste 11 Noroeste 0 1018 -- 58
2020-11-16 14:00:00 15.6 5 Noroeste 11 Noroeste 0 1017.7 -- 59
2020-11-16 13:00:00 16.8 4 Oeste 7 Oeste 0 1018.3 -- 63
2020-11-16 12:00:00 15.1 6 Sur 16 Sur 0 1018.7 -- 70
2020-11-16 11:00:00 13.4 13 Sur 21 Sur 0 1018.4 -- 74
2020-11-16 10:00:00 11.5 15 Sur 22 Sur 0 1018.5 -- 81
2020-11-16 09:00:00 10.5 15 Sur 20 Sur 0 1017.9 -- 82
2020-11-16 08:00:00 10.8 13 Sur 16 Sur 0 1017.3 -- 80
2020-11-16 07:00:00 11.6 11 Sur 15 Sur 0 1016.8 -- 77
2020-11-16 06:00:00 13 8 Sudoeste 15 Oeste 0 1016.7 -- 76
2020-11-16 05:00:00 12.5 7 Sudoeste 18 Oeste 0 1016.3 -- 76
2020-11-16 04:00:00 13.9 16 Oeste 26 Oeste 0 1016.4 -- 72
2020-11-16 03:00:00 13.9 17 Oeste 22 Oeste 0 1016.1 -- 74
2020-11-16 02:00:00 13.9 9 Sudoeste 24 Oeste 0 1015.6 -- 71
2020-11-16 01:00:00 13.8 20 Oeste 27 Oeste 0 1015.2 -- 70
2020-11-16 00:00:00 13.9 15 Oeste 22 Sudoeste 0 1014.8 -- 68
2020-11-15 23:00:00 13.8 15 Sudoeste 26 Oeste 0 1014.7 -- 69
2020-11-15 22:00:00 13.9 21 Oeste 37 Oeste 0 1014.3 -- 73
2020-11-15 21:00:00 13.9 28 Oeste 40 Oeste 0 1013.2 -- 75
2020-11-15 20:00:00 13.6 27 Oeste 47 Oeste 0 1012.4 -- 79
2020-11-15 19:00:00 13.3 40 Oeste 53 Oeste 0 1011.2 -- 83
2020-11-15 18:00:00 13.2 35 Oeste 55 Oeste 0.2 1010.8 -- 87
2020-11-15 17:00:00 13.6 32 Oeste 72 Oeste 0.2 1010 -- 89
2020-11-15 16:00:00 14.3 50 Oeste 66 Oeste 0.2 1008.1 -- 87
2020-11-15 15:00:00 15.3 12 Oeste 50 Oeste 0.6 1008.2 -- 85
2020-11-15 14:00:00 15 38 Oeste 57 Oeste 1.8 1007.2 -- 87
2020-11-15 13:00:00 15.1 32 Oeste 65 Oeste 2.2 1006.5 -- 87
2020-11-15 12:00:00 15.1 41 Oeste 61 Noroeste 0.8 1005.7 -- 86
2020-11-15 11:00:00 15.9 19 Oeste 59 Noroeste 0 1005.6 -- 83
2020-11-15 10:00:00 20.3 37 Oeste 66 Oeste 0 1004 -- 62
2020-11-15 09:00:00 20.7 49 Oeste 80 Oeste 0 1002.3 -- 60
2020-11-15 08:00:00 21.2 47 Oeste 74 Oeste 0 1001.4 -- 55
2020-11-15 07:00:00 21.3 42 Oeste 63 Sudoeste 0 1001.6 -- 53
2020-11-15 06:00:00 21.9 36 Sudoeste 67 Sudoeste 0 1001.5 -- 50
2020-11-15 05:00:00 21.9 32 Sudoeste 64 Oeste 0 1001.5 -- 48
2020-11-15 04:00:00 21.8 31 Oeste 59 Oeste 0 1002.5 -- 47
2020-11-15 03:00:00 21.2 22 Oeste 48 Oeste 0 1003 -- 50
2020-11-15 02:00:00 20.1 12 Sudoeste 27 Oeste 0 1003.7 -- 56
2020-11-15 01:00:00 20.2 10 Oeste 33 Oeste 0 1004.3 -- 55
2020-11-15 00:00:00 20.4 10 Sudoeste 35 Oeste 0 1004.7 -- 51
2020-11-14 23:00:00 18.9 10 Oeste 24 Sudoeste 0 1005.7 -- 56
2020-11-14 22:00:00 18.7 4 Sur 27 Sur 0 1005.2 -- 55
2020-11-14 21:00:00 18.7 11 Sudoeste 22 Sur 0 1005.1 -- 54
2020-11-14 20:00:00 17.8 8 Sur 18 Sudoeste 0 1005.4 -- 59
2020-11-14 19:00:00 18.5 8 Sur 25 Sur 0 1005 -- 56
2020-11-14 18:00:00 18.3 11 Sudeste 15 Sudeste 0 1004.8 -- 51
2020-11-14 17:00:00 19.2 12 Este 18 Este 0 1004.9 -- 40
2020-11-14 16:00:00 20.1 8 Sudeste 23 Sudoeste 0 1004.5 -- 39
2020-11-14 15:00:00 20 13 Este 19 Este 0 1004.8 -- 38
2020-11-14 14:00:00 19.1 11 Este 15 Este 0 1005.1 -- 45
2020-11-14 13:00:00 18.6 5 Nordeste 9 Este 0 1005.7 -- 58
2020-11-14 12:00:00 18.7 5 Norte 14 Sur 0 1006.1 -- 59
2020-11-14 11:00:00 17.7 11 Sur 21 Sudeste 0 1006 -- 53
2020-11-14 10:00:00 14.4 16 Sur 19 Sur 0 1006.4 -- 63
2020-11-14 09:00:00 11.9 18 Sur 29 Sudeste 0 1006.1 -- 68
2020-11-14 08:00:00 12 20 Sudeste 25 Sudeste 0 1005.6 -- 66
2020-11-14 07:00:00 13.2 18 Sudeste 25 Sur 0 1005.5 -- 61
2020-11-14 06:00:00 11.4 17 Sur 25 Sur 0 1005.8 -- 70
2020-11-14 05:00:00 12.4 21 Sur 30 Sudeste 0 1006 -- 67
2020-11-14 04:00:00 12.7 23 Sudeste 32 Sudeste 0 1006.4 -- 67
2020-11-14 03:00:00 12 19 Sudeste 30 Sudeste 0 1006.9 -- 71
2020-11-14 02:00:00 12.3 19 Sudeste 26 Sur 0 1007.8 -- 72
2020-11-14 01:00:00 12.2 18 Sur 25 Sudeste 0 1008.4 -- 73
2020-11-14 00:00:00 12.2 17 Sur 23 Sur 0 1008.6 -- 74
2020-11-13 23:00:00 12.4 19 Sur 23 Sur 0 1008.6 -- 73
2020-11-13 22:00:00 13 15 Sudeste 22 Sudeste 0 1008.6 -- 72
2020-11-13 21:00:00 12.8 15 Sur 19 Sur 0 1008.8 -- 73
2020-11-13 20:00:00 13.1 14 Sur 17 Sur 0 1008.9 -- 73
2020-11-13 19:00:00 14 9 Sudeste 12 Sudeste 0 1009.1 -- 70
2020-11-13 18:00:00 16.1 4 Este 10 Oeste 0 1009.1 -- 70
2020-11-13 17:00:00 17.8 4 Nordeste 19 Este 0 1009.1 -- 66
2020-11-13 16:00:00 17.8 14 Este 21 Este 0 1008.8 -- 52
2020-11-13 15:00:00 17.8 11 Este 19 Este 0 1009.3 -- 57
2020-11-13 14:00:00 17.8 12 Este 17 Este 0 1009.7 -- 62
2020-11-13 13:00:00 17.5 12 Este 15 Este 0 1010.2 -- 67
2020-11-13 12:00:00 18.4 8 Este 11 Este 0 1010.7 -- 52
2020-11-13 11:00:00 17.2 5 Sudoeste 24 Sudeste 0 1010.5 -- 62
2020-11-13 10:00:00 13.7 16 Sudeste 22 Sudeste 0 1010.4 -- 65
2020-11-13 09:00:00 11.6 22 Sur 26 Sur 0 1009.8 -- 70
2020-11-13 08:00:00 11.5 20 Sur 24 Sur 0 1009.1 -- 71
2020-11-13 07:00:00 12 17 Sur 21 Sur 0 1009.3 -- 70
2020-11-13 06:00:00 11.8 9 Sur 17 Sudeste 0 1009.6 -- 73
2020-11-13 05:00:00 12.7 8 Sudeste 19 Sur 0 1009.6 -- 72
2020-11-13 04:00:00 12.3 16 Sur 22 Sur 0 1009.7 -- 77
2020-11-13 03:00:00 13 17 Sur 19 Sur 0 1009.6 -- 77
2020-11-13 02:00:00 13.2 15 Sur 19 Sur 0 1009.6 -- 79
2020-11-13 01:00:00 13.8 17 Sur 21 Sur 0 1009.7 -- 78
2020-11-13 00:00:00 14.3 14 Sur 18 Sudoeste 0 1009.9 -- 77
2020-11-12 23:00:00 14.3 12 Sudoeste 19 Sur 0 1010 -- 79
2020-11-12 22:00:00 14.3 15 Sur 18 Sur 0 1009.8 -- 83
2020-11-12 21:00:00 14.4 13 Sur 15 Sur 0 1009.7 -- 84
2020-11-12 20:00:00 14.4 10 Sur 15 Sur 0 1009.9 -- 85
2020-11-12 19:00:00 15.3 6 Sudeste 9 Sur 0 1009.7 -- 84
2020-11-12 18:00:00 16.5 4 Este 6 Oeste 0 1009.7 -- 83
2020-11-12 17:00:00 17.6 2 Sur 18 Este 0 1009.7 -- 81
2020-11-12 16:00:00 17.2 11 Este 20 Este 0 1009.7 -- 82
2020-11-12 15:00:00 17.2 13 Este 21 Este 0 1010 -- 80
2020-11-12 14:00:00 17 13 Este 18 Este 0 1010.8 -- 78
2020-11-12 13:00:00 16.2 9 Este 16 Este 0 1011.7 -- 79
2020-11-12 12:00:00 15.9 12 Este 15 Este 0 1012.5 -- 79
2020-11-12 11:00:00 16.1 5 Este 13 Sudeste 0 1012.8 -- 81
2020-11-12 10:00:00 14.7 9 Sudeste 13 Sudeste 0 1012.9 -- 86
2020-11-12 09:00:00 13.7 9 Sudeste 14 Sudeste 0 1012.9 -- 87
2020-11-12 08:00:00 13.8 8 Sudeste 12 Este 0 1012.5 -- 86
2020-11-12 07:00:00 14 6 Este 10 Este 0 1012.3 -- 85
2020-11-12 06:00:00 14.7 5 Este 10 Este 0 1012.4 -- 84
2020-11-12 05:00:00 14.9 4 Este 8 Este 0 1012.3 -- 82
2020-11-12 04:00:00 15 3 Sudeste 13 Noroeste 0 1012.9 -- 82
2020-11-12 03:00:00 15 9 Noroeste 18 Oeste 0 1013.3 -- 83
2020-11-12 02:00:00 15.2 13 Noroeste 20 Noroeste 0 1013.4 -- 82
2020-11-12 01:00:00 16.3 19 Noroeste 25 Oeste 0 1013 -- 73
2020-11-12 00:00:00 17.7 3 Noroeste 10 Norte 0 1012.5 -- 51
2020-11-11 23:00:00 17.7 4 Nordeste 10 Nordeste 0 1012.1 -- 47
2020-11-11 22:00:00 17 4 Sur 17 Sur 0 1011.7 -- 50
2020-11-11 21:00:00 16.7 10 Sur 21 Sudoeste 0 1011.4 -- 52
2020-11-11 20:00:00 17.2 6 Oeste 23 Oeste 0 1011.2 -- 50
2020-11-11 19:00:00 17 6 Oeste 28 Oeste 0 1010.9 -- 49
2020-11-11 18:00:00 16.7 11 Oeste 28 Sudoeste 0 1010.7 -- 54
2020-11-11 17:00:00 16.1 6 Sudeste 17 Este 0 1010.4 -- 63
2020-11-11 16:00:00 16.6 12 Sudeste 15 Sudeste 0 1010 -- 61
2020-11-11 15:00:00 17.4 10 Sudeste 14 Sudeste 0 1010.1 -- 50
2020-11-11 14:00:00 17.1 8 Este 10 Sudeste 0 1010.6 -- 52
2020-11-11 13:00:00 17.4 5 Este 9 Este 0 1011.4 -- 54
2020-11-11 12:00:00 18 7 Sudeste 11 Sudeste 0 1012.4 -- 54
2020-11-11 11:00:00 15.8 5 Sudeste 21 Sur 0 1012.7 -- 62
2020-11-11 10:00:00 12.6 15 Sur 27 Sur 0 1012.7 -- 65
2020-11-11 09:00:00 11 19 Sudeste 27 Sudeste 0 1012.7 -- 68
2020-11-11 08:00:00 10.2 21 Sudeste 28 Sur 0 1012.9 -- 74
2020-11-11 07:00:00 10.5 19 Sur 28 Sur 0 1013.4 -- 74
2020-11-11 06:00:00 10.9 21 Sur 26 Sur 0 1013.7 -- 75
2020-11-11 05:00:00 11 18 Sur 25 Sudeste 0 1014.5 -- 77
2020-11-11 04:00:00 11 17 Sur 21 Sudeste 0 1015.2 -- 78
2020-11-11 03:00:00 11 17 Sur 21 Sur 0 1015.5 -- 78
2020-11-11 02:00:00 11.7 14 Sur 26 Sur 0 1016 -- 78
2020-11-11 01:00:00 11.9 21 Sur 27 Sur 0 1016.1 -- 79
2020-11-11 00:00:00 11.7 19 Sudeste 29 Sudeste 0 1016.8 -- 81
2020-11-10 23:00:00 12.1 23 Sudeste 30 Sudeste 0 1017.7 -- 81
2020-11-10 22:00:00 11.5 19 Sudeste 25 Sudeste 0 1017.9 -- 82
2020-11-10 21:00:00 11.9 15 Sur 20 Sur 0 1018 -- 81
2020-11-10 20:00:00 12.1 13 Sudeste 18 Sudeste 0 1018.3 -- 79
2020-11-10 19:00:00 13.9 6 Este 18 Nordeste 0 1018.6 -- 73
2020-11-10 18:00:00 14.5 7 Nordeste 17 Nordeste 0 1018.3 -- 71
2020-11-10 17:00:00 15.2 6 Nordeste 12 Nordeste 0 1018.6 -- 68
2020-11-10 16:00:00 15.9 7 Este 13 Este 0 1018.3 -- 64
2020-11-10 15:00:00 16.3 6 Noroeste 16 Oeste 0 1019 -- 65
2020-11-10 14:00:00 15.6 9 Noroeste 12 Noroeste 0 1019.2 -- 67
2020-11-10 13:00:00 15.6 8 Noroeste 10 Noroeste 0 1019.6 -- 66
2020-11-10 12:00:00 16.2 3 Oeste 15 Sur 0 1020.2 -- 66
2020-11-10 11:00:00 13.3 10 Sur 21 Sur 0 1020.5 -- 74
2020-11-10 10:00:00 11.3 18 Sur 24 Sur 0 1020 -- 79
2020-11-10 09:00:00 10 17 Sur 22 Sur 0 1020 -- 80
2020-11-10 08:00:00 10.1 15 Sur 21 Sur 0 1019.4 -- 82
2020-11-10 07:00:00 10.2 15 Sur 21 Sur 0 1018.7 -- 83
2020-11-10 06:00:00 10.2 16 Sur 21 Sur 0 1018.5 -- 84
2020-11-10 05:00:00 10.6 18 Sudeste 22 Sudeste 0 1018.3 -- 85
2020-11-10 04:00:00 11.3 15 Sur 20 Sur 0 1018.6 -- 86
2020-11-10 03:00:00 11.8 12 Sur 19 Sur 0 1018.7 -- 86
2020-11-10 02:00:00 11.4 15 Sur 19 Sur 0 1018.2 -- 87
2020-11-10 01:00:00 12.3 14 Sur 18 Sur 0 1018.3 -- 86
2020-11-10 00:00:00 13.1 12 Sur 17 Sur 0 1017.9 -- 86
2020-11-09 23:00:00 13.5 9 Sur 14 Sur 0 1018 -- 84
2020-11-09 22:00:00 13.9 9 Sur 13 Sur 0 1017.5 -- 82
2020-11-09 21:00:00 15.1 8 Sudoeste 13 Sudoeste 0 1017.1 -- 79
2020-11-09 20:00:00 14.9 9 Sudoeste 17 Oeste 0 1016.7 -- 81
2020-11-09 19:00:00 15.1 12 Oeste 20 Oeste 0 1016 -- 81
2020-11-09 18:00:00 15.7 11 Oeste 27 Oeste 0.2 1015.2 -- 80
2020-11-09 17:00:00 15.8 15 Oeste 32 Noroeste 0.4 1014.5 -- 79
2020-11-09 16:00:00 17 10 Oeste 28 Oeste 0 1013.4 -- 71
2020-11-09 15:00:00 18.1 15 Oeste 44 Oeste 0 1013 -- 62
2020-11-09 14:00:00 18.2 27 Oeste 40 Oeste 0 1012.5 -- 57
2020-11-09 13:00:00 18.1 24 Oeste 32 Oeste 0 1012.7 -- 63
2020-11-09 12:00:00 15.8 7 Sur 13 Sur 0 1013 -- 79
2020-11-09 11:00:00 15.2 8 Sudoeste 21 Sudoeste 0 1012.6 -- 79
2020-11-09 10:00:00 14.5 7 Oeste 13 Oeste 0 1012.2 -- 80
2020-11-09 09:00:00 12.8 11 Sudeste 21 Sur 0 1011.3 -- 80
2020-11-09 08:00:00 12.9 15 Sur 23 Sur 1 1010.2 -- 78
2020-11-09 07:00:00 13.2 8 Sur 19 Oeste 0.6 1010 -- 75
2020-11-09 06:00:00 16.1 9 Oeste 28 Oeste 0 1009.4 -- 71
2020-11-09 05:00:00 14.7 11 Sur 22 Sudoeste 0 1008.6 -- 66
2020-11-09 04:00:00 15.8 11 Sudoeste 22 Sudoeste 0 1008.7 -- 62
2020-11-09 03:00:00 13.5 8 Sur 17 Sur 0 1008.6 -- 72
2020-11-09 02:00:00 13.1 8 Sudeste 21 Sur 0 1008.2 -- 74
2020-11-09 01:00:00 13.2 15 Sur 20 Sur 0 1008.2 -- 73
2020-11-09 00:00:00 13.4 13 Sudeste 18 Sur 0 1008.1 -- 75
2020-11-08 23:00:00 14.1 10 Sudeste 18 Sur 0 1008.1 -- 71
2020-11-08 22:00:00 14.9 15 Sur 21 Sur 0 1007.6 -- 71
2020-11-08 21:00:00 15 4 Sur 10 Este 0 1007.7 -- 73
2020-11-08 20:00:00 16.2 8 Este 12 Noroeste 0 1007 -- 73
2020-11-08 19:00:00 16.7 7 Noroeste 11 Este 0 1006.6 -- 72
2020-11-08 18:00:00 16.6 12 Este 19 Este 0 1006 -- 74
2020-11-08 17:00:00 17.4 12 Este 18 Este 0 1005.7 -- 72
2020-11-08 16:00:00 17.4 11 Este 17 Este 0 1005.3 -- 69
2020-11-08 15:00:00 17.8 10 Este 23 Este 0 1005.4 -- 68
2020-11-08 14:00:00 17.5 14 Este 22 Este 0 1005.7 -- 66
2020-11-08 13:00:00 17.9 10 Este 18 Sudeste 0 1006.2 -- 65
2020-11-08 12:00:00 17.6 13 Sudeste 36 Sudoeste 0 1007.2 -- 69
2020-11-08 11:00:00 15.9 39 Oeste 50 Oeste 0 1007.7 -- 72
2020-11-08 10:00:00 17.7 14 Sudeste 22 Sur 0 1007 -- 60
2020-11-08 09:00:00 15.6 15 Sudeste 23 Sudeste 0 1006.8 -- 64
2020-11-08 08:00:00 14.1 19 Sudeste 30 Sudeste 0 1006.8 -- 69
2020-11-08 07:00:00 13.5 21 Sur 25 Sur 0 1006.8 -- 69
2020-11-08 06:00:00 14.7 21 Sur 28 Sur 0 1006.9 -- 66
2020-11-08 05:00:00 13.7 22 Sur 30 Sudeste 0 1007.2 -- 68
2020-11-08 04:00:00 13.6 20 Sudeste 29 Sudeste 0 1007.8 -- 68
2020-11-08 03:00:00 14 20 Sudeste 24 Sur 0 1008.1 -- 67
2020-11-08 02:00:00 14.5 18 Sudeste 26 Sudeste 0 1008.4 -- 65
2020-11-08 01:00:00 14.1 18 Sudeste 24 Sudeste 0 1008.4 -- 68
2020-11-08 00:00:00 15.8 8 Sudeste 15 Sudeste 0 1008.4 -- 61
2020-11-07 23:00:00 15.7 6 Sur 13 Sur 0 1008.5 -- 62
2020-11-07 22:00:00 15.4 4 Sudoeste 13 Sudeste 0 1008.4 -- 65
2020-11-07 21:00:00 15.7 6 Sudeste 15 Sur 0 1008 -- 66
2020-11-07 20:00:00 16.3 7 Sur 15 Sudeste 0 1007.7 -- 65
2020-11-07 19:00:00 16 3 Este 8 Este 0 1007.2 -- 73
2020-11-07 18:00:00 16.8 4 Sudeste 13 Este 0 1006.5 -- 71
2020-11-07 17:00:00 17.4 9 Este 17 Este 0 1005.9 -- 70
2020-11-07 16:00:00 17 13 Este 20 Sudeste 0 1005.5 -- 70
2020-11-07 15:00:00 17 11 Este 19 Este 0 1005.2 -- 71
2020-11-07 14:00:00 17.7 9 Este 17 Este 0 1005.1 -- 72
2020-11-07 13:00:00 17.5 8 Nordeste 22 Nordeste 0 1005 -- 75
2020-11-07 12:00:00 18.2 5 Sudoeste 10 Este 0 1005 -- 72
2020-11-07 11:00:00 18.3 3 Sur 18 Sudeste 0 1004.8 -- 71
2020-11-07 10:00:00 15.6 6 Sudoeste 22 Sur 0 1004.3 -- 80
2020-11-07 09:00:00 14.1 13 Sur 24 Sudeste 0 1003.4 -- 81
2020-11-07 08:00:00 14.7 17 Sudeste 25 Sudeste 0 1002.8 -- 81
2020-11-07 07:00:00 14.3 13 Sudeste 21 Sudeste 0 1002.4 -- 84
2020-11-07 06:00:00 14.4 8 Sudeste 15 Sudeste 0 1002.3 -- 83
2020-11-07 05:00:00 15 7 Sudeste 14 Sudeste 0 1002.2 -- 84
2020-11-07 04:00:00 15.3 9 Este 17 Este 0 1002.2 -- 84
2020-11-07 03:00:00 15.2 6 Este 12 Sudeste 0 1002.3 -- 83
2020-11-07 02:00:00 14.8 3 Nordeste 9 Sudeste 0 1002.4 -- 83
2020-11-07 01:00:00 14.9 9 Sur 17 Sudeste 0 1001.5 -- 82
2020-11-07 00:00:00 15.3 10 Sudeste 21 Sur 0.2 1001.6 -- 82
2020-11-06 23:00:00 15.9 8 Este 21 Norte 0 1001.3 -- 81
2020-11-06 22:00:00 16.1 8 Oeste 42 Oeste 0.2 1000.4 -- 76
2020-11-06 21:00:00 16.2 30 Oeste 57 Oeste 0 999.4 -- 74
2020-11-06 20:00:00 16.4 9 Oeste 24 Oeste 0 999.3 -- 75
2020-11-06 19:00:00 19.8 10 Sur 22 Sudoeste 0 999.5 -- 57
2020-11-06 18:00:00 19.8 12 Sudeste 39 Nordeste 0 999.6 -- 54
2020-11-06 17:00:00 20.2 19 Nordeste 39 Nordeste 0 999.8 -- 54
2020-11-06 16:00:00 19.4 20 Este 41 Nordeste 0 1000.2 -- 59
2020-11-06 15:00:00 19.5 8 Nordeste 31 Este 0 1001.4 -- 64
2020-11-06 14:00:00 18.8 15 Este 26 Este 0 1002.5 -- 59
2020-11-06 13:00:00 20.9 10 Sudeste 17 Sudeste 0 1003.5 -- 49
2020-11-06 12:00:00 17.6 8 Nordeste 20 Sudeste 0 1004.6 -- 65
2020-11-06 11:00:00 16.8 10 Sudeste 23 Sudeste 0 1005.5 1.1 65
2020-11-06 10:00:00 14.9 17 Sudeste 26 Sudeste 0 1005.4 -- 67
2020-11-06 09:00:00 15.2 10 Oeste 29 Sur 0 1005.4 -- 67
2020-11-06 08:00:00 13.7 20 Sudeste 27 Sudeste 0 1004.4 -- 69
2020-11-06 07:00:00 13.2 20 Sudeste 26 Sudeste 0 1004.8 -- 71
2020-11-06 06:00:00 13.5 15 Sudeste 27 Sudeste 0 1005.2 -- 70
2020-11-06 05:00:00 13.2 15 Sudeste 25 Sudeste 0 1005 -- 70
2020-11-06 04:00:00 13 17 Sudeste 21 Sudeste 0 1005.6 -- 72
2020-11-06 03:00:00 13.7 11 Sudeste 28 Sudeste 0 1006.4 -- 70
2020-11-06 02:00:00 13.7 17 Sudeste 28 Sudeste 0 1006.7 -- 71
2020-11-06 01:00:00 12.3 13 Sudeste 19 Sudeste 0 1007.4 -- 74
2020-11-06 00:00:00 12.4 12 Sudeste 20 Sudeste 0 1007.9 -- 73
2020-11-05 23:00:00 13.2 9 Este 15 Sudeste 0 1008.8 -- 71
2020-11-05 22:00:00 13.1 9 Sudeste 17 Sudeste 0 1009.3 -- 69
2020-11-05 21:00:00 13.1 11 Sudeste 20 Este 0 1009.9 -- 70
2020-11-05 20:00:00 12.9 12 Sudeste 19 Sudeste 0 1010.6 -- 71
2020-11-05 19:00:00 13.4 10 Sudeste 35 Este 0 1011.2 -- 72
2020-11-05 18:00:00 14 23 Este 41 Este 0 1011 -- 72
2020-11-05 17:00:00 14.2 28 Este 43 Este 0 1011.6 -- 72
2020-11-05 16:00:00 14.2 22 Este 48 Este 0 1012.1 -- 71
2020-11-05 15:00:00 14.1 28 Este 47 Este 0 1012.5 -- 70
2020-11-05 14:00:00 14.1 32 Este 58 Este 0 1013.3 -- 70
2020-11-05 13:00:00 13.9 33 Este 60 Este 0 1014.1 -- 68
2020-11-05 12:00:00 13.6 38 Este 59 Este 0 1014.6 -- 68
2020-11-05 11:00:00 13.2 35 Este 58 Este 0 1015.6 -- 69
2020-11-05 10:00:00 13 32 Este 60 Sudeste 0 1015.6 -- 68
2020-11-05 09:00:00 12.8 28 Este 60 Este 0 1015.7 -- 69
2020-11-05 08:00:00 12.9 38 Este 60 Este 0 1015.6 -- 68
2020-11-05 07:00:00 12.8 33 Este 62 Este 0 1015.8 -- 67
2020-11-05 06:00:00 12.8 37 Este 63 Este 0 1015.7 -- 68
2020-11-05 05:00:00 12.9 34 Este 62 Este 0 1016.1 -- 68
2020-11-05 04:00:00 12.9 41 Este 64 Este 0 1016.3 -- 66
2020-11-05 03:00:00 12.7 42 Este 71 Este 0 1016.6 -- 63
2020-11-05 02:00:00 12.6 39 Este 68 Este 0 1017.1 -- 61
2020-11-05 01:00:00 12.6 37 Este 63 Este 0 1017.1 -- 66
2020-11-05 00:00:00 12.2 43 Este 68 Nordeste 0 1017.3 -- 64
2020-11-04 23:00:00 12.1 39 Este 63 Este 0 1017.7 -- 68
2020-11-04 22:00:00 12.1 32 Este 62 Este 0 1017.2 -- 67
2020-11-04 21:00:00 12 29 Este 69 Este 0 1017.5 -- 67
2020-11-04 20:00:00 11.9 34 Este 70 Este 1 1016.9 -- 70
2020-11-04 19:00:00 12 25 Este 45 Este 0 1016.8 -- 72
2020-11-04 18:00:00 11.7 26 Este 48 Nordeste 0 1016.8 -- 74
2020-11-04 17:00:00 11.5 20 Nordeste 54 Este 1.2 1016.7 -- 76
2020-11-04 16:00:00 12.3 22 Nordeste 44 Este 0 1016.9 -- 66
2020-11-04 15:00:00 12.5 21 Nordeste 43 Nordeste 0 1016.9 -- 69
2020-11-04 14:00:00 12.7 14 Nordeste 30 Nordeste 0 1017.8 -- 68
2020-11-04 13:00:00 13.4 8 Este 21 Nordeste 0 1018.7 -- 69
2020-11-04 12:00:00 12.3 3 Norte 13 Oeste 0 1019.2 -- 75
2020-11-04 11:00:00 11.1 8 Sudoeste 13 Oeste 0 1019.1 0.2 79
2020-11-04 10:00:00 8.8 6 Este 22 Sudeste 0.2 1019.7 -- 82
2020-11-04 09:00:00 7.7 17 Sudeste 22 Sur 0 1019 -- 84
2020-11-04 08:00:00 7.3 11 Sur 20 Sur 0 1018.9 -- 84
2020-11-04 07:00:00 7.5 15 Sur 25 Sudeste 0.2 1019.1 -- 83
2020-11-04 06:00:00 7.8 13 Sudeste 24 Sur 1 1019.7 -- 83
2020-11-04 05:00:00 7.6 18 Sur 23 Sur 0 1020.1 -- 84
2020-11-04 04:00:00 7.4 18 Sur 24 Sur 0 1020.8 -- 84
2020-11-04 03:00:00 8.2 18 Sur 27 Sur 0 1021.6 -- 82
2020-11-04 02:00:00 8.1 19 Sur 24 Sur 0 1022.2 -- 84
2020-11-04 01:00:00 8 19 Sur 25 Sur 1 1023.2 -- 83
2020-11-04 00:00:00 8.4 18 Sudeste 26 Sudeste 0.2 1024 -- 82
2020-11-03 23:00:00 8.4 17 Sur 22 Sur 0 1024.5 -- 82
2020-11-03 22:00:00 8.4 18 Sur 21 Sur 0 1025.2 -- 82
2020-11-03 21:00:00 9.2 16 Sudeste 19 Sur 0 1025.5 -- 79
2020-11-03 20:00:00 10.1 14 Sudeste 23 Norte 0 1025.5 -- 72
2020-11-03 19:00:00 12.5 17 Noroeste 28 Noroeste 0 1025.5 -- 62
2020-11-03 18:00:00 12.9 14 Noroeste 28 Noroeste 0 1025.6 -- 59
2020-11-03 17:00:00 13.4 -- -- -- -- 0 1025.7 -- 55
2020-11-03 16:00:00 13.6 -- -- -- -- 0 1025.8 -- 59
2020-11-03 15:00:00 14 14 Noroeste 22 Oeste 0 1025.8 -- 59
2020-11-03 14:00:00 14.3 14 Noroeste 26 Noroeste 0 1026.1 -- 55
2020-11-03 13:00:00 13.7 -- -- -- -- 0 1026.5 -- 57
2020-11-03 12:00:00 12.7 15 Noroeste 23 Noroeste 0 1026.4 -- 65
2020-11-03 11:00:00 12 8 Sudoeste 22 Sur 0.2 1026.2 -- 78
2020-11-03 10:00:00 11.4 13 Sur 22 Oeste 0 1025.6 -- 79
2020-11-03 09:00:00 11.3 10 Sudoeste 21 Oeste 0 1024.5 -- 82
2020-11-03 08:00:00 11.6 -- -- -- -- 0.2 1023.6 -- 86
2020-11-03 07:00:00 11.6 -- -- -- -- 0.8 1023.2 -- 87
2020-11-03 06:00:00 11.5 -- -- -- -- 0.2 1022.5 -- 86
2020-11-03 05:00:00 11.9 18 Oeste -- -- 0.4 1022.1 -- 84
2020-11-03 04:00:00 11.7 15 Oeste 32 Oeste 0 1021.5 -- 73
2020-11-03 03:00:00 10.7 16 Sur 25 Sudoeste 0 1021.3 -- 74
2020-11-03 02:00:00 11.5 12 Sudoeste 23 Sudoeste 0 1020.9 -- 73
2020-11-03 01:00:00 12.5 13 Sudoeste 24 Sudoeste 0 1020.6 -- 72
2020-11-03 00:00:00 13.1 14 Sudoeste 31 Oeste 0 1020.5 -- 76
2020-11-02 23:00:00 13.3 21 Oeste 27 Oeste 0 1020.1 -- 80
2020-11-02 22:00:00 13.5 13 Sudoeste 19 Sur 0 1019.6 -- 81
2020-11-02 21:00:00 13.2 11 Sur 34 Oeste 0 1019.4 -- 83
2020-11-02 20:00:00 12.9 12 Sudoeste 22 Sur 0 1019 -- 85
2020-11-02 19:00:00 13.1 13 Sur 20 Sur 0 1018.2 -- 84
2020-11-02 18:00:00 12.9 12 Sur 17 Sur 0 1017.6 -- 85
2020-11-02 17:00:00 13.1 10 Sudoeste 22 Oeste 0.6 1017.3 -- 86
2020-11-02 16:00:00 13 18 Oeste 36 Oeste 1.4 1017.2 -- 88
2020-11-02 15:00:00 13.6 18 Noroeste -- -- 2.8 1016.7 -- 87
2020-11-02 14:00:00 13.8 11 Oeste 33 Oeste 3.6 1016.6 -- 86
2020-11-02 13:00:00 14.6 26 Oeste 49 Oeste 0.4 1016.1 -- 85
2020-11-02 12:00:00 14.8 22 Oeste 48 Oeste 2.2 1015.3 -- 87
2020-11-02 11:00:00 15.9 35 Oeste 63 Noroeste 1.2 1013.7 -- 85
2020-11-02 10:00:00 17.6 53 Oeste 80 Noroeste 0 1011.6 -- 75
2020-11-02 09:00:00 21.7 26 Oeste 51 Oeste 0 1010 -- 56
2020-11-02 08:00:00 21.8 25 Sudoeste 53 Sudoeste 0 1009 -- 51
2020-11-02 07:00:00 21.7 32 Sudoeste 59 Oeste 0 1009 -- 51
2020-11-02 06:00:00 21.4 24 Sudoeste 42 Sudoeste 0 1010 -- 53
2020-11-02 05:00:00 20.9 31 Sudoeste 52 Oeste 0 1009.7 -- 57
2020-11-02 04:00:00 20.5 27 Oeste 64 Oeste 0 1010.1 -- 62
2020-11-02 03:00:00 21.4 44 Oeste 60 Oeste 0 1009.5 -- 60
2020-11-02 02:00:00 20.4 34 Oeste 52 Oeste 0 1009.9 -- 67
2020-11-02 01:00:00 19.7 20 Oeste 34 Oeste 0 1009.9 -- 70
2020-11-02 00:00:00 22.8 14 Oeste 22 Sudoeste 0 1010.2 -- 52
2020-11-01 23:00:00 22.8 17 Sudoeste 30 Oeste 0 1010.3 -- 52
2020-11-01 22:00:00 22.5 15 Sudoeste 25 Sudoeste 0 1010.3 -- 54
2020-11-01 21:00:00 22 10 Oeste 15 Oeste 0 1010.2 -- 57
2020-11-01 20:00:00 21.3 5 Sudoeste 13 Oeste 0 1010.2 -- 62
2020-11-01 19:00:00 19.9 5 Oeste 14 Oeste 0 1010 -- 67
2020-11-01 18:00:00 20.4 12 Sudeste 17 Este 0 1010 -- 67
2020-11-01 17:00:00 20.3 13 Este 19 Sudeste 0 1010.3 -- 67
2020-11-01 16:00:00 21.2 13 Sudeste 20 Este 0 1010.1 -- 64
2020-11-01 15:00:00 22.1 12 Este 21 Este 0 1010.7 -- 60
2020-11-01 14:00:00 23.2 7 Sur 20 Oeste 0 1011 -- 57
2020-11-01 13:00:00 23.8 3 Norte 23 Sudoeste 0 1011.5 -- 55
2020-11-01 12:00:00 23.1 12 Sudoeste 42 Oeste 0 1011.9 -- 58
2020-11-01 11:00:00 22.9 14 Oeste 25 Oeste 0 1011.8 -- 57
2020-11-01 10:00:00 21.8 13 Oeste 27 Oeste 0 1012.2 -- 60
2020-11-01 09:00:00 21.2 12 Oeste 32 Oeste 0 1011.6 -- 61
2020-11-01 08:00:00 21.8 19 Oeste 38 Noroeste 0 1010.8 -- 58
2020-11-01 07:00:00 22.2 9 Oeste 33 Noroeste 0 1010.5 -- 56
2020-11-01 06:00:00 23 4 Oeste 32 Sudeste 0 1010.5 -- 51
2020-11-01 05:00:00 22.5 8 Sur 28 Oeste 0 1010.5 -- 52
2020-11-01 04:00:00 22.6 19 Sudoeste 38 Sudoeste 0 1011.3 -- 52
2020-11-01 03:00:00 22.6 20 Sudoeste 48 Oeste 0 1011.1 -- 50
2020-11-01 02:00:00 21.7 11 Noroeste 35 Noroeste 0 1011.9 -- 54
2020-11-01 01:00:00 22.9 13 Sudoeste 31 Sur 0 1011.4 -- 48
2020-11-01 00:00:00 22.6 20 Oeste 36 Oeste 0 1012.1 -- 50
2020-10-31 23:00:00 22.4 7 Sudoeste 46 Oeste 0 1012.1 -- 49
2020-10-31 22:00:00 22.6 19 Sudoeste 40 Sudoeste 0 1012.2 -- 48
2020-10-31 21:00:00 21.9 12 Sudoeste 33 Oeste 0 1012.5 -- 51
2020-10-31 20:00:00 22.4 23 Oeste -- -- 0 1012.2 -- 51
2020-10-31 19:00:00 22.8 22 Oeste -- -- 0 1011.8 -- 48
2020-10-31 18:00:00 22.4 -- -- -- -- 0 1011.9 -- 52
2020-10-31 17:00:00 22.1 28 Oeste 50 Oeste 0 1012.2 -- 55
2020-10-31 16:00:00 22.9 31 Oeste 58 Oeste 0 1011.4 -- 50
2020-10-31 15:00:00 23.8 -- -- -- -- 0 1011.1 -- 49
2020-10-31 14:00:00 24 25 Oeste -- -- 0 1012.2 -- 46
2020-10-31 13:00:00 23.7 -- -- -- -- 0 1012.9 -- 46
2020-10-31 12:00:00 23.8 21 Oeste -- -- 0 1013.6 -- 49
2020-10-31 11:00:00 22.4 8 Sur 32 Sur 0 1012.6 -- 48
2020-10-31 10:00:00 21.9 13 Sur 39 Sudoeste 0 1012.2 -- 49
2020-10-31 09:00:00 21.4 19 Sudoeste -- -- 0 1011.8 -- 50
2020-10-31 08:00:00 20 -- -- -- -- 0 1012.1 -- 56
2020-10-31 07:00:00 17.8 14 Sur 24 Sur 0 1012.3 -- 64
2020-10-31 06:00:00 15.9 7 Noroeste -- -- 0 1012.7 -- 71
2020-10-31 05:00:00 12.6 -- -- -- -- 0 1012.3 -- 73
2020-10-31 04:00:00 12.4 19 Sudeste -- -- 0 1012.8 -- 74
2020-10-31 03:00:00 12.6 -- -- -- -- 0 1013.2 -- 75
2020-10-31 02:00:00 12.8 14 Sur -- -- 0 1013.5 -- 74
2020-10-31 01:00:00 13.2 17 Sur -- -- 0 1013.5 -- 74
2020-10-31 00:00:00 13.6 -- -- -- -- 0 1013.6 -- 72
2020-10-30 23:00:00 14.7 -- -- -- -- 0 1013.8 -- 68
2020-10-30 22:00:00 14.9 -- -- -- -- 0 1014.2 -- 70
2020-10-30 21:00:00 15.4 -- -- -- -- 0 1014.6 -- 69
2020-10-30 20:00:00 15.6 -- -- -- -- 0 1014.9 -- 69
2020-10-30 19:00:00 16.5 12 Sudeste 22 Sudeste 0 1014.7 -- 69
2020-10-30 18:00:00 16.9 13 Sudeste 19 Este 0 1014.5 -- 79
2020-10-30 17:00:00 17.4 11 Este 18 Sudeste 0 1015 -- 75
2020-10-30 16:00:00 18.1 8 Este 18 Este 0 1015.4 -- 71
2020-10-30 15:00:00 17.9 4 Nordeste 15 Este 0 1015.5 -- 70
2020-10-30 14:00:00 17.7 8 Este 14 Este 0 1015.6 -- 70
2020-10-30 13:00:00 17.5 7 Este 10 Nordeste 0 1016 -- 69
2020-10-30 12:00:00 17.7 9 Sudeste 22 Sudeste 0 1016.7 -- 62
2020-10-30 11:00:00 15 18 Sudeste -- -- 0 1016.6 -- 67
2020-10-30 10:00:00 12.8 -- -- -- -- 0 1016.6 -- 73
2020-10-30 09:00:00 10.5 -- -- -- -- 0 1016.6 -- 79
2020-10-30 08:00:00 9.9 -- -- -- -- 0 1016.5 -- 80
2020-10-30 07:00:00 9.9 -- -- -- -- 0 1016.6 -- 81
2020-10-30 06:00:00 10.1 -- -- -- -- 0 1016.7 -- 81
2020-10-30 05:00:00 10.4 -- -- -- -- 0 1016.7 -- 81
2020-10-30 04:00:00 10.7 -- -- -- -- 0 1017 -- 81
2020-10-30 03:00:00 11 -- -- -- -- 0 1017.1 -- 81
2020-10-30 02:00:00 11.1 -- -- -- -- 0 1017.1 -- 81
2020-10-30 01:00:00 11.1 18 Sur -- -- 0 1017.2 -- 82
2020-10-30 00:00:00 11.4 -- -- -- -- 0 1017.3 -- 81